Latest METARs, TAFs and NOTAMs for MMPR


---------------------------------------------------------------------------
	(OBSERVATIONS)
MMPR 230744Z 04006KT 12SM  FEW090 OVC250 25/25 A2985  RMK 8/037
    CU S=
MMPR 230642Z 00000KT 12SM  SCT090 OVC250 25/25 A2986  RMK 8/037
    DSNT LTGIC OCNL NNW=
MMPR 230544Z 02006KT 12SM  SCT090 OVC250 26/26 A2987  RMK SLP113
    52009 910 8/037 DSNT OCNL LTGIC NNW=
---------------------------------------------------------------------------
	(TERMINAL AREA FORECAST)
MMPR 230454Z 2306/2412 02005KT P6SM SCT020 SCT070 BKN250 TX31/2319Z
    TN26/2312Z
    TEMPO 2306/2310 6SM TSRA BKN015CB
    FM231800 22010KT P6SM SCT020 BKN250
    TEMPO 2323/2403 6SM TSRA BKN020CB=
---------------------------------------------------------------------------
	(NOTAMS)


MMPR A2174/18 CD OPR IN FREQ 121.9 MHZ. 1500/2200 26 TO 30 APR
    DLY 1500/2200 3MAY TO 27 OCT ONLY DAYS THU,FRI,SAT AND SUN,
    26 APR 21:08 2018 UNTIL 27 OCT 22:00 2018. CREATED: 26 APR
    21:13 2018

MMPR A2673/18 CHANGED ALT AWY UJ-14 TO 7000 FT BTN D-15 TIL D-20
    RDL 293 DEG FM VOR/DME/PVR PUBLISHED IN CHART MMPR-IAC-2
    AMDT AIRAC 06/18 DATE 24-MAY-2018 OF MEXICO AIP. 24 MAY 12:00
    2018 UNTIL PERM. CREATED: 21 MAY 16:15 2018

MMPR A2674/18 ALT IS ESTABLISHED AWY UJ-48 TO 70O0 FT BTN D-17
    TIL D-25 RDL 290 DEG FM VOR/DME/PVR IN CHART MMPR-IAC-5 AMDT
    AIRAC 06/2018 DATE 24-MAY-2018 OF MEXICO AIP. 24 MAY 12:00
    2018 UNTIL PERM. CREATED: 21 MAY 16:34 2018

---------------------------------------------------------------------------